LFJR

Angers-Loire Airport

Airport
ICAO code
LFJR
IATA Code
ANE
Summary
ICAO Region
EUR
ICAO Territory
Location

Marcé, Pays de la Loire

Serving
Angers
Elevation
194 ft
Coordinates
47° 33' 37" N , 0° 18' 44" W
Metar
Observation
LFJR 092000Z AUTO 35004KT 8000 NSC M02/M03 Q1008
Station
MARCE
Date/Time
2022-12-09 20:00:00
Wind direction
350°
Wind speed
04 kts
Lowest cloud amount
nil significant cloud
Temperature
-2°C
Dew point
-3°C
Humidity
92%
QNH
1008 hPa
Weather condition
n/a

Runways

Designator Length Width Surface Rops
8/26 1800 45 ASP Yes/Yes

Airport map

Aerial View

SKYbrary Partners:

Safety knowledge contributed by: